HFM9015 LFMN-LHBP
Flight info
| Callsign | HFM9015 |
|---|---|
| Flight time | 1h 16m |
| Altitude | 40000 |
| Route | BASIP DCT ANAKI DCT EKPAL DCT BARPI DCT MAGAM DCT KOPRY DCT ULZAK |
| Aircraft | A388/J-SADE2E3FGHIJ3J4J5M1RWXY/LB1D1 |
Departure
| Time | 2026-05-07 21:03 |
|---|---|
| Airport | Nice-Côte d'Azur Airport (LFMN) |
Arrival
| Time | 2026-05-07 22:20 |
|---|---|
| Airport | Budapest Liszt Ferenc International Airport (LHBP) |
| Time | Latitude | Longitude | Altitude | Speed | Heading |
|---|---|---|---|---|---|
| 2026-05-07 20:38 | 43.65789 | 7.20543 | 27 ft | 0 kts | 339° |
| 2026-05-07 20:50 | 43.65776 | 7.20550 | 26 ft | 2 kts | 340° |
| 2026-05-07 20:51 | 43.65760 | 7.20557 | 27 ft | 2 kts | 341° |
| 2026-05-07 20:51 | 43.65744 | 7.20564 | 25 ft | 2 kts | 345° |
| 2026-05-07 20:51 | 43.65728 | 7.20568 | 26 ft | 2 kts | 353° |
| 2026-05-07 20:51 | 43.65712 | 7.20564 | 24 ft | 2 kts | 13° |
| 2026-05-07 20:52 | 43.65698 | 7.20552 | 25 ft | 2 kts | 37° |
| 2026-05-07 20:52 | 43.65686 | 7.20536 | 24 ft | 2 kts | 44° |
| 2026-05-07 20:52 | 43.65674 | 7.20520 | 26 ft | 2 kts | 46° |
| 2026-05-07 20:52 | 43.65663 | 7.20503 | 27 ft | 2 kts | 47° |
| 2026-05-07 20:53 | 43.65653 | 7.20489 | 26 ft | 1 kts | 46° |
| 2026-05-07 20:53 | 43.65651 | 7.20486 | 26 ft | 0 kts | 46° |
| 2026-05-07 20:56 | 43.65661 | 7.20501 | 27 ft | 8 kts | 46° |
| 2026-05-07 20:57 | 43.65679 | 7.20577 | 27 ft | 10 kts | 105° |
| 2026-05-07 20:57 | 43.65632 | 7.20660 | 27 ft | 13 kts | 153° |
| 2026-05-07 20:57 | 43.65581 | 7.20679 | 27 ft | 0 kts | 172° |
| 2026-05-07 20:57 | 43.65561 | 7.20684 | 27 ft | 7 kts | 170° |
| 2026-05-07 20:58 | 43.65494 | 7.20699 | 27 ft | 12 kts | 170° |
| 2026-05-07 20:58 | 43.65394 | 7.20723 | 27 ft | 17 kts | 170° |
| 2026-05-07 20:58 | 43.65278 | 7.20731 | 27 ft | 17 kts | 198° |
| 2026-05-07 20:58 | 43.65180 | 7.20624 | 27 ft | 20 kts | 225° |
| 2026-05-07 20:59 | 43.65076 | 7.20481 | 27 ft | 22 kts | 225° |
| 2026-05-07 20:59 | 43.64969 | 7.20334 | 27 ft | 20 kts | 225° |
| 2026-05-07 20:59 | 43.64890 | 7.20224 | 27 ft | 13 kts | 225° |
| 2026-05-07 20:59 | 43.64861 | 7.20183 | 27 ft | 0 kts | 225° |
| 2026-05-07 21:00 | 43.64860 | 7.20182 | 27 ft | 2 kts | 225° |
| 2026-05-07 21:00 | 43.64856 | 7.20177 | 27 ft | 0 kts | 225° |
| 2026-05-07 21:00 | 43.64855 | 7.20176 | 27 ft | 1 kts | 225° |
| 2026-05-07 21:01 | 43.64818 | 7.20142 | 27 ft | 10 kts | 195° |
| 2026-05-07 21:01 | 43.64779 | 7.20147 | 27 ft | 0 kts | 150° |
| 2026-05-07 21:01 | 43.64778 | 7.20148 | 27 ft | 1 kts | 150° |
| 2026-05-07 21:01 | 43.64716 | 7.20231 | 27 ft | 14 kts | 114° |
| 2026-05-07 21:02 | 43.64741 | 7.20341 | 27 ft | 14 kts | 46° |
| 2026-05-07 21:02 | 43.64759 | 7.20365 | 27 ft | 0 kts | 45° |
| 2026-05-07 21:02 | 43.64761 | 7.20368 | 27 ft | 5 kts | 45° |
| 2026-05-07 21:02 | 43.65016 | 7.20721 | 27 ft | 96 kts | 45° |
| 2026-05-07 21:03 | 43.65651 | 7.21587 | 42 ft | 153 kts | 44° |
| 2026-05-07 21:03 | 43.66402 | 7.22647 | 640 ft | 154 kts | 51° |
| 2026-05-07 21:03 | 43.66691 | 7.24042 | 1177 ft | 159 kts | 105° |
| 2026-05-07 21:03 | 43.66159 | 7.25378 | 1774 ft | 163 kts | 127° |
| 2026-05-07 21:04 | 43.65404 | 7.26636 | 2197 ft | 181 kts | 130° |
| 2026-05-07 21:04 | 43.64527 | 7.28002 | 2569 ft | 198 kts | 131° |
| 2026-05-07 21:04 | 43.63660 | 7.29571 | 2765 ft | 214 kts | 116° |
| 2026-05-07 21:04 | 43.63352 | 7.31620 | 3220 ft | 225 kts | 88° |
| 2026-05-07 21:05 | 43.63565 | 7.33737 | 4222 ft | 223 kts | 77° |
| 2026-05-07 21:05 | 43.63997 | 7.35815 | 5197 ft | 226 kts | 71° |
| 2026-05-07 21:05 | 43.64522 | 7.37867 | 6192 ft | 228 kts | 70° |
| 2026-05-07 21:05 | 43.65081 | 7.39936 | 7142 ft | 231 kts | 70° |
| 2026-05-07 21:06 | 43.65644 | 7.42021 | 8091 ft | 233 kts | 70° |
| 2026-05-07 21:06 | 43.66210 | 7.44139 | 9059 ft | 236 kts | 70° |
| 2026-05-07 21:06 | 43.66771 | 7.46263 | 10002 ft | 240 kts | 71° |
| 2026-05-07 21:06 | 43.67346 | 7.48445 | 10850 ft | 245 kts | 71° |
| 2026-05-07 21:07 | 43.67942 | 7.50709 | 11494 ft | 261 kts | 71° |
| 2026-05-07 21:07 | 43.68594 | 7.53167 | 11880 ft | 284 kts | 71° |
| 2026-05-07 21:07 | 43.69303 | 7.55839 | 12196 ft | 308 kts | 71° |
| 2026-05-07 21:07 | 43.70067 | 7.58718 | 12416 ft | 331 kts | 71° |
| 2026-05-07 21:08 | 43.70885 | 7.61802 | 12705 ft | 350 kts | 71° |
| 2026-05-07 21:08 | 43.71737 | 7.64992 | 13380 ft | 356 kts | 69° |
| 2026-05-07 21:08 | 43.72728 | 7.68150 | 14058 ft | 361 kts | 67° |
| 2026-05-07 21:08 | 43.73752 | 7.71344 | 14725 ft | 365 kts | 67° |
| 2026-05-07 21:09 | 43.74790 | 7.74579 | 15386 ft | 370 kts | 67° |
| 2026-05-07 21:09 | 43.75838 | 7.77849 | 16024 ft | 374 kts | 67° |
| 2026-05-07 21:09 | 43.76895 | 7.81158 | 16656 ft | 378 kts | 67° |
| 2026-05-07 21:09 | 43.77962 | 7.84506 | 17294 ft | 383 kts | 67° |
| 2026-05-07 21:10 | 43.79040 | 7.87897 | 17934 ft | 387 kts | 67° |
| 2026-05-07 21:10 | 43.80129 | 7.91328 | 18502 ft | 391 kts | 67° |
| 2026-05-07 21:10 | 43.81229 | 7.94799 | 19007 ft | 396 kts | 67° |
| 2026-05-07 21:10 | 43.82340 | 7.98311 | 19501 ft | 401 kts | 67° |
| 2026-05-07 21:11 | 43.83467 | 8.01876 | 20002 ft | 405 kts | 66° |
| 2026-05-07 21:11 | 43.84600 | 8.05468 | 20497 ft | 409 kts | 66° |
| 2026-05-07 21:11 | 43.86904 | 8.12783 | 21486 ft | 418 kts | 66° |
| 2026-05-07 21:12 | 43.88055 | 8.16445 | 21954 ft | 422 kts | 66° |
| 2026-05-07 21:12 | 43.89234 | 8.20202 | 22442 ft | 426 kts | 66° |
| 2026-05-07 21:12 | 43.90423 | 8.23996 | 22906 ft | 431 kts | 66° |
| 2026-05-07 21:12 | 43.91623 | 8.27831 | 23385 ft | 435 kts | 66° |
| 2026-05-07 21:13 | 43.92830 | 8.31694 | 23807 ft | 439 kts | 66° |
| 2026-05-07 21:13 | 43.94050 | 8.35605 | 24206 ft | 443 kts | 66° |
| 2026-05-07 21:13 | 43.95276 | 8.39542 | 24595 ft | 447 kts | 66° |
| 2026-05-07 21:13 | 43.96518 | 8.43535 | 24979 ft | 452 kts | 66° |
| 2026-05-07 21:14 | 43.97772 | 8.47556 | 25386 ft | 456 kts | 66° |
| 2026-05-07 21:14 | 43.99046 | 8.51617 | 25790 ft | 460 kts | 66° |
| 2026-05-07 21:14 | 44.00337 | 8.55720 | 26217 ft | 465 kts | 66° |
| 2026-05-07 21:14 | 44.01622 | 8.59803 | 26644 ft | 470 kts | 66° |
| 2026-05-07 21:15 | 44.02941 | 8.63997 | 27098 ft | 474 kts | 66° |
| 2026-05-07 21:15 | 44.04268 | 8.68222 | 27548 ft | 479 kts | 66° |
| 2026-05-07 21:15 | 44.05608 | 8.72493 | 28000 ft | 484 kts | 66° |
| 2026-05-07 21:15 | 44.06959 | 8.76811 | 28453 ft | 490 kts | 66° |
| 2026-05-07 21:16 | 44.08325 | 8.81182 | 28912 ft | 495 kts | 66° |
| 2026-05-07 21:16 | 44.09702 | 8.85597 | 29369 ft | 500 kts | 66° |
| 2026-05-07 21:16 | 44.11091 | 8.90058 | 29841 ft | 505 kts | 66° |
| 2026-05-07 21:16 | 44.12492 | 8.94571 | 30276 ft | 510 kts | 66° |
| 2026-05-07 21:17 | 44.13901 | 8.99120 | 30739 ft | 513 kts | 66° |
| 2026-05-07 21:17 | 44.15318 | 9.03706 | 31174 ft | 517 kts | 66° |
| 2026-05-07 21:17 | 44.16725 | 9.08270 | 31598 ft | 521 kts | 66° |
| 2026-05-07 21:17 | 44.18160 | 9.12934 | 32017 ft | 525 kts | 66° |
| 2026-05-07 21:18 | 44.19606 | 9.17638 | 32436 ft | 529 kts | 67° |
| 2026-05-07 21:18 | 44.21059 | 9.22378 | 32843 ft | 534 kts | 67° |
| 2026-05-07 21:18 | 44.22522 | 9.27157 | 33267 ft | 537 kts | 67° |
| 2026-05-07 21:18 | 44.23995 | 9.31976 | 33697 ft | 541 kts | 67° |
| 2026-05-07 21:19 | 44.25474 | 9.36826 | 34121 ft | 544 kts | 67° |
| 2026-05-07 21:19 | 44.26457 | 9.40054 | 34387 ft | 546 kts | 67° |
| 2026-05-07 21:19 | 44.28431 | 9.46547 | 34964 ft | 549 kts | 67° |
| 2026-05-07 21:19 | 44.29921 | 9.51461 | 35552 ft | 547 kts | 67° |
| 2026-05-07 21:20 | 44.31401 | 9.56351 | 36121 ft | 546 kts | 67° |
| 2026-05-07 21:20 | 44.32379 | 9.59587 | 36525 ft | 545 kts | 67° |
| 2026-05-07 21:20 | 44.33850 | 9.64463 | 37121 ft | 543 kts | 67° |
| 2026-05-07 21:20 | 44.35313 | 9.69324 | 37719 ft | 541 kts | 67° |
| 2026-05-07 21:21 | 44.36770 | 9.74168 | 38260 ft | 540 kts | 67° |
| 2026-05-07 21:21 | 44.38224 | 9.79012 | 38769 ft | 539 kts | 67° |
| 2026-05-07 21:21 | 44.39671 | 9.83845 | 39206 ft | 537 kts | 67° |
| 2026-05-07 21:21 | 44.41108 | 9.88657 | 39678 ft | 535 kts | 67° |
| 2026-05-07 21:22 | 44.42539 | 9.93454 | 40024 ft | 536 kts | 67° |
| 2026-05-07 21:22 | 44.43984 | 9.98310 | 40031 ft | 540 kts | 67° |
| 2026-05-07 21:22 | 44.46831 | 10.07904 | 40031 ft | 537 kts | 67° |
| 2026-05-07 21:23 | 44.49694 | 10.17581 | 40027 ft | 537 kts | 67° |
| 2026-05-07 21:23 | 44.52545 | 10.27259 | 40024 ft | 537 kts | 67° |
| 2026-05-07 21:24 | 44.55388 | 10.36947 | 40027 ft | 537 kts | 67° |
| 2026-05-07 21:24 | 44.58225 | 10.46653 | 40025 ft | 537 kts | 67° |
| 2026-05-07 21:25 | 44.61046 | 10.56341 | 40025 ft | 536 kts | 67° |
| 2026-05-07 21:25 | 44.63859 | 10.66038 | 40028 ft | 536 kts | 67° |
| 2026-05-07 21:26 | 44.66646 | 10.75684 | 40031 ft | 535 kts | 67° |
| 2026-05-07 21:26 | 44.69437 | 10.85380 | 40025 ft | 535 kts | 67° |
| 2026-05-07 21:27 | 44.72219 | 10.95084 | 40011 ft | 535 kts | 67° |
| 2026-05-07 21:27 | 44.74992 | 11.04793 | 40008 ft | 534 kts | 67° |
| 2026-05-07 21:28 | 44.77752 | 11.14497 | 40005 ft | 534 kts | 67° |
| 2026-05-07 21:28 | 44.80508 | 11.24223 | 40005 ft | 534 kts | 67° |
| 2026-05-07 21:29 | 44.83249 | 11.33935 | 40008 ft | 534 kts | 67° |
| 2026-05-07 21:29 | 44.85966 | 11.43598 | 40012 ft | 534 kts | 68° |
| 2026-05-07 21:30 | 44.88690 | 11.53328 | 40019 ft | 534 kts | 68° |
| 2026-05-07 21:30 | 44.91410 | 11.63080 | 40014 ft | 534 kts | 68° |
| 2026-05-07 21:31 | 44.94120 | 11.72838 | 40022 ft | 534 kts | 68° |
| 2026-05-07 21:31 | 44.96822 | 11.82603 | 40027 ft | 534 kts | 68° |
| 2026-05-07 21:32 | 44.99520 | 11.92395 | 40025 ft | 534 kts | 68° |
| 2026-05-07 21:32 | 45.02195 | 12.02144 | 40028 ft | 535 kts | 68° |
| 2026-05-07 21:33 | 45.04878 | 12.11958 | 40026 ft | 535 kts | 68° |
| 2026-05-07 21:33 | 45.07552 | 12.21781 | 40029 ft | 535 kts | 68° |
| 2026-05-07 21:34 | 45.10216 | 12.31609 | 40034 ft | 535 kts | 68° |
| 2026-05-07 21:34 | 45.12874 | 12.41452 | 40037 ft | 534 kts | 68° |
| 2026-05-07 21:35 | 45.15517 | 12.51283 | 40032 ft | 534 kts | 68° |
| 2026-05-07 21:35 | 45.18137 | 12.61067 | 40036 ft | 534 kts | 68° |
| 2026-05-07 21:36 | 45.20765 | 12.70921 | 40039 ft | 534 kts | 69° |
| 2026-05-07 21:36 | 45.23383 | 12.80778 | 40038 ft | 534 kts | 69° |
| 2026-05-07 21:37 | 45.25991 | 12.90640 | 40035 ft | 534 kts | 69° |
| 2026-05-07 21:37 | 45.28592 | 13.00514 | 40042 ft | 534 kts | 69° |
| 2026-05-07 21:38 | 45.31186 | 13.10407 | 40041 ft | 534 kts | 69° |
| 2026-05-07 21:38 | 45.33764 | 13.20278 | 40036 ft | 534 kts | 69° |
| 2026-05-07 21:39 | 45.36348 | 13.30213 | 40038 ft | 534 kts | 69° |
| 2026-05-07 21:39 | 45.38897 | 13.40059 | 40039 ft | 534 kts | 69° |
| 2026-05-07 21:40 | 45.41456 | 13.49980 | 40043 ft | 534 kts | 69° |
| 2026-05-07 21:40 | 45.44021 | 13.59971 | 40072 ft | 534 kts | 69° |
| 2026-05-07 21:41 | 45.46548 | 13.69854 | 40079 ft | 534 kts | 69° |
| 2026-05-07 21:41 | 45.49081 | 13.79805 | 40075 ft | 534 kts | 69° |
| 2026-05-07 21:42 | 45.51608 | 13.89775 | 40077 ft | 534 kts | 69° |
| 2026-05-07 21:42 | 45.54125 | 13.99747 | 40079 ft | 534 kts | 70° |
| 2026-05-07 21:43 | 45.56631 | 14.09722 | 40086 ft | 534 kts | 70° |
| 2026-05-07 21:43 | 45.59130 | 14.19709 | 40090 ft | 533 kts | 70° |
| 2026-05-07 21:44 | 45.61602 | 14.29633 | 40092 ft | 534 kts | 70° |
| 2026-05-07 21:44 | 45.64083 | 14.39636 | 40092 ft | 533 kts | 70° |
| 2026-05-07 21:45 | 45.66551 | 14.49631 | 40082 ft | 533 kts | 70° |
| 2026-05-07 21:45 | 45.69010 | 14.59634 | 40084 ft | 533 kts | 70° |
| 2026-05-07 21:46 | 45.71463 | 14.69658 | 40089 ft | 533 kts | 70° |
| 2026-05-07 21:46 | 45.73906 | 14.79687 | 40081 ft | 533 kts | 70° |
| 2026-05-07 21:47 | 45.76339 | 14.89714 | 40082 ft | 533 kts | 70° |
| 2026-05-07 21:47 | 45.78767 | 14.99769 | 40064 ft | 533 kts | 70° |
| 2026-05-07 21:48 | 45.81166 | 15.09752 | 40067 ft | 533 kts | 70° |
| 2026-05-07 21:48 | 45.83572 | 15.19805 | 40067 ft | 533 kts | 71° |
| 2026-05-07 21:49 | 45.85970 | 15.29870 | 40067 ft | 533 kts | 71° |
| 2026-05-07 21:49 | 45.88357 | 15.39933 | 40067 ft | 532 kts | 71° |
| 2026-05-07 21:50 | 45.90719 | 15.49942 | 40064 ft | 532 kts | 71° |
| 2026-05-07 21:50 | 45.93088 | 15.60023 | 40067 ft | 532 kts | 71° |
| 2026-05-07 21:51 | 45.95451 | 15.70124 | 40070 ft | 532 kts | 71° |
| 2026-05-07 21:51 | 45.97802 | 15.80222 | 40073 ft | 533 kts | 71° |
| 2026-05-07 21:52 | 46.00143 | 15.90322 | 40068 ft | 533 kts | 71° |
| 2026-05-07 21:52 | 46.02476 | 16.00435 | 40067 ft | 532 kts | 71° |
| 2026-05-07 21:53 | 46.04786 | 16.10494 | 40072 ft | 532 kts | 71° |
| 2026-05-07 21:53 | 46.07100 | 16.20621 | 40069 ft | 532 kts | 71° |
| 2026-05-07 21:54 | 46.09405 | 16.30754 | 40069 ft | 532 kts | 71° |
| 2026-05-07 21:54 | 46.11702 | 16.40900 | 40071 ft | 532 kts | 72° |
| 2026-05-07 21:55 | 46.13987 | 16.51043 | 40066 ft | 532 kts | 72° |
| 2026-05-07 21:55 | 46.16269 | 16.61209 | 40059 ft | 532 kts | 72° |
| 2026-05-07 21:56 | 46.18538 | 16.71343 | 39834 ft | 527 kts | 72° |
| 2026-05-07 21:56 | 46.19643 | 16.76292 | 39616 ft | 524 kts | 72° |
| 2026-05-07 21:56 | 46.20758 | 16.81299 | 39398 ft | 524 kts | 72° |
| 2026-05-07 21:57 | 46.21711 | 16.85583 | 39200 ft | 525 kts | 72° |
| 2026-05-07 21:57 | 46.22825 | 16.90609 | 38979 ft | 525 kts | 72° |
| 2026-05-07 21:57 | 46.24034 | 16.95605 | 38752 ft | 526 kts | 65° |
| 2026-05-07 21:57 | 46.25782 | 17.00263 | 38465 ft | 525 kts | 55° |
| 2026-05-07 21:58 | 46.27785 | 17.04657 | 37835 ft | 525 kts | 55° |
| 2026-05-07 21:58 | 46.29785 | 17.09006 | 37014 ft | 527 kts | 55° |
| 2026-05-07 21:58 | 46.31810 | 17.13433 | 36068 ft | 530 kts | 55° |
| 2026-05-07 21:58 | 46.33857 | 17.17934 | 35026 ft | 536 kts | 56° |
| 2026-05-07 21:59 | 46.35905 | 17.22464 | 34089 ft | 538 kts | 56° |
| 2026-05-07 21:59 | 46.37942 | 17.26987 | 33335 ft | 534 kts | 56° |
| 2026-05-07 21:59 | 46.39949 | 17.31455 | 32756 ft | 526 kts | 56° |
| 2026-05-07 21:59 | 46.41939 | 17.35893 | 32078 ft | 522 kts | 56° |
| 2026-05-07 22:00 | 46.43909 | 17.40292 | 31402 ft | 518 kts | 56° |
| 2026-05-07 22:00 | 46.45868 | 17.44670 | 30708 ft | 515 kts | 56° |
| 2026-05-07 22:00 | 46.47796 | 17.48987 | 30013 ft | 513 kts | 56° |
| 2026-05-07 22:00 | 46.49734 | 17.53332 | 29280 ft | 509 kts | 56° |
| 2026-05-07 22:01 | 46.51643 | 17.57619 | 28612 ft | 504 kts | 56° |
| 2026-05-07 22:01 | 46.53542 | 17.61889 | 27903 ft | 500 kts | 56° |
| 2026-05-07 22:01 | 46.55420 | 17.66121 | 27233 ft | 495 kts | 57° |
| 2026-05-07 22:01 | 46.57279 | 17.70314 | 26549 ft | 491 kts | 57° |
| 2026-05-07 22:02 | 46.59121 | 17.74477 | 25885 ft | 487 kts | 57° |
| 2026-05-07 22:02 | 46.60946 | 17.78606 | 25203 ft | 483 kts | 57° |
| 2026-05-07 22:02 | 46.62731 | 17.82651 | 24537 ft | 480 kts | 58° |
| 2026-05-07 22:02 | 46.64532 | 17.86739 | 23861 ft | 476 kts | 58° |
| 2026-05-07 22:03 | 46.66317 | 17.90795 | 23117 ft | 472 kts | 58° |
| 2026-05-07 22:03 | 46.68071 | 17.94791 | 22448 ft | 465 kts | 58° |
| 2026-05-07 22:03 | 46.69802 | 17.98738 | 21789 ft | 459 kts | 58° |
| 2026-05-07 22:03 | 46.71509 | 18.02635 | 21137 ft | 453 kts | 58° |
| 2026-05-07 22:04 | 46.73171 | 18.06433 | 20489 ft | 448 kts | 58° |
| 2026-05-07 22:04 | 46.74833 | 18.10237 | 19831 ft | 442 kts | 58° |
| 2026-05-07 22:04 | 46.76476 | 18.14004 | 19191 ft | 437 kts | 58° |
| 2026-05-07 22:04 | 46.78099 | 18.17730 | 18543 ft | 433 kts | 58° |
| 2026-05-07 22:05 | 46.79706 | 18.21425 | 17843 ft | 428 kts | 58° |
| 2026-05-07 22:05 | 46.81285 | 18.25061 | 17226 ft | 421 kts | 58° |
| 2026-05-07 22:05 | 46.82842 | 18.28650 | 16605 ft | 415 kts | 58° |
| 2026-05-07 22:05 | 46.84376 | 18.32190 | 15986 ft | 409 kts | 58° |
| 2026-05-07 22:06 | 46.85885 | 18.35677 | 15373 ft | 404 kts | 58° |
| 2026-05-07 22:06 | 46.87325 | 18.39009 | 14798 ft | 398 kts | 58° |
| 2026-05-07 22:06 | 46.88796 | 18.42418 | 14204 ft | 393 kts | 58° |
| 2026-05-07 22:06 | 46.90246 | 18.45780 | 13587 ft | 388 kts | 57° |
| 2026-05-07 22:07 | 46.91674 | 18.49096 | 13012 ft | 382 kts | 58° |
| 2026-05-07 22:07 | 46.93077 | 18.52356 | 12447 ft | 376 kts | 58° |
| 2026-05-07 22:07 | 46.93994 | 18.54491 | 12065 ft | 372 kts | 58° |
| 2026-05-07 22:07 | 46.95363 | 18.57680 | 11533 ft | 367 kts | 58° |
| 2026-05-07 22:08 | 46.97145 | 18.61835 | 10807 ft | 361 kts | 58° |
| 2026-05-07 22:08 | 46.98468 | 18.64925 | 10459 ft | 351 kts | 58° |
| 2026-05-07 22:08 | 46.99329 | 18.66939 | 10355 ft | 341 kts | 58° |
| 2026-05-07 22:08 | 47.00560 | 18.69818 | 10220 ft | 327 kts | 58° |
| 2026-05-07 22:09 | 47.01727 | 18.72551 | 10099 ft | 314 kts | 58° |
| 2026-05-07 22:09 | 47.02869 | 18.75230 | 9578 ft | 310 kts | 58° |
| 2026-05-07 22:09 | 47.04003 | 18.77892 | 9186 ft | 304 kts | 58° |
| 2026-05-07 22:09 | 47.05117 | 18.80508 | 9029 ft | 302 kts | 58° |
| 2026-05-07 22:10 | 47.06229 | 18.83123 | 8714 ft | 300 kts | 58° |
| 2026-05-07 22:10 | 47.07330 | 18.85714 | 8379 ft | 299 kts | 58° |
| 2026-05-07 22:10 | 47.08423 | 18.88288 | 8053 ft | 295 kts | 58° |
| 2026-05-07 22:10 | 47.09502 | 18.90834 | 7717 ft | 291 kts | 57° |
| 2026-05-07 22:11 | 47.10566 | 18.93345 | 7378 ft | 288 kts | 58° |
| 2026-05-07 22:11 | 47.11620 | 18.95833 | 7045 ft | 285 kts | 57° |
| 2026-05-07 22:11 | 47.12662 | 18.98298 | 6717 ft | 283 kts | 57° |
| 2026-05-07 22:11 | 47.13695 | 19.00741 | 6393 ft | 280 kts | 57° |
| 2026-05-07 22:12 | 47.14717 | 19.03163 | 6059 ft | 277 kts | 57° |
| 2026-05-07 22:12 | 47.15730 | 19.05564 | 5721 ft | 275 kts | 57° |
| 2026-05-07 22:12 | 47.16730 | 19.07937 | 5392 ft | 272 kts | 57° |
| 2026-05-07 22:12 | 47.17724 | 19.10298 | 5073 ft | 270 kts | 57° |
| 2026-05-07 22:13 | 47.18696 | 19.12609 | 4745 ft | 268 kts | 57° |
| 2026-05-07 22:13 | 47.19681 | 19.14950 | 4403 ft | 267 kts | 57° |
| 2026-05-07 22:13 | 47.20652 | 19.17261 | 4088 ft | 265 kts | 57° |
| 2026-05-07 22:13 | 47.21619 | 19.19565 | 3756 ft | 264 kts | 57° |
| 2026-05-07 22:14 | 47.22584 | 19.21865 | 3423 ft | 264 kts | 57° |
| 2026-05-07 22:14 | 47.23563 | 19.24200 | 2884 ft | 271 kts | 57° |
| 2026-05-07 22:14 | 47.24552 | 19.26560 | 2404 ft | 269 kts | 58° |
| 2026-05-07 22:14 | 47.25533 | 19.28904 | 1927 ft | 270 kts | 57° |
| 2026-05-07 22:15 | 47.26529 | 19.31221 | 1798 ft | 265 kts | 51° |
| 2026-05-07 22:15 | 47.27919 | 19.32913 | 1803 ft | 264 kts | 24° |
| 2026-05-07 22:15 | 47.29625 | 19.33702 | 1801 ft | 248 kts | 12° |
| 2026-05-07 22:15 | 47.31218 | 19.34333 | 1793 ft | 225 kts | 13° |
| 2026-05-07 22:16 | 47.32656 | 19.34930 | 1804 ft | 205 kts | 13° |
| 2026-05-07 22:16 | 47.33924 | 19.35464 | 1805 ft | 176 kts | 13° |
| 2026-05-07 22:16 | 47.35073 | 19.35945 | 1798 ft | 167 kts | 12° |
| 2026-05-07 22:16 | 47.36101 | 19.36373 | 1792 ft | 152 kts | 12° |
| 2026-05-07 22:17 | 47.37092 | 19.36753 | 1786 ft | 143 kts | 4° |
| 2026-05-07 22:17 | 47.38034 | 19.36531 | 1577 ft | 135 kts | 323° |
| 2026-05-07 22:17 | 47.38650 | 19.35536 | 1472 ft | 134 kts | 304° |
| 2026-05-07 22:17 | 47.39235 | 19.34446 | 1265 ft | 137 kts | 307° |
| 2026-05-07 22:18 | 47.39843 | 19.33368 | 1095 ft | 137 kts | 310° |
| 2026-05-07 22:18 | 47.41127 | 19.31277 | 789 ft | 138 kts | 311° |
| 2026-05-07 22:18 | 47.41768 | 19.30236 | 637 ft | 137 kts | 311° |
| 2026-05-07 22:19 | 47.42410 | 19.29198 | 472 ft | 137 kts | 311° |
| 2026-05-07 22:19 | 47.42987 | 19.28265 | 463 ft | 99 kts | 313° |
| 2026-05-07 22:19 | 47.43317 | 19.27733 | 467 ft | 54 kts | 313° |
| 2026-05-07 22:19 | 47.43553 | 19.27350 | 469 ft | 51 kts | 313° |
| 2026-05-07 22:20 | 47.43783 | 19.26984 | 472 ft | 47 kts | 312° |
| 2026-05-07 22:20 | 47.44011 | 19.26616 | 471 ft | 49 kts | 312° |
| 2026-05-07 22:20 | 47.44215 | 19.26287 | 476 ft | 37 kts | 312° |
| 2026-05-07 22:20 | 47.44366 | 19.26042 | 470 ft | 29 kts | 312° |
| 2026-05-07 22:21 | 47.44464 | 19.25884 | 474 ft | 18 kts | 312° |
| 2026-05-07 22:21 | 47.44507 | 19.25729 | 481 ft | 18 kts | 264° |
| 2026-05-07 22:21 | 47.44439 | 19.25581 | 466 ft | 19 kts | 206° |
| 2026-05-07 22:21 | 47.44309 | 19.25591 | 463 ft | 20 kts | 142° |
| 2026-05-07 22:22 | 47.44209 | 19.25739 | 463 ft | 21 kts | 133° |
| 2026-05-07 22:22 | 47.44112 | 19.25894 | 463 ft | 18 kts | 133° |
| 2026-05-07 22:22 | 47.44029 | 19.26023 | 463 ft | 13 kts | 151° |
| 2026-05-07 22:22 | 47.43951 | 19.25988 | 463 ft | 14 kts | 223° |
| 2026-05-07 22:23 | 47.43869 | 19.25877 | 462 ft | 18 kts | 222° |
| 2026-05-07 22:23 | 47.43771 | 19.25745 | 462 ft | 20 kts | 222° |
| 2026-05-07 22:23 | 47.43662 | 19.25599 | 462 ft | 22 kts | 222° |
| 2026-05-07 22:23 | 47.43544 | 19.25442 | 462 ft | 23 kts | 222° |
| 2026-05-07 22:24 | 47.43456 | 19.25329 | 462 ft | 12 kts | 204° |
| 2026-05-07 22:24 | 47.43385 | 19.25366 | 462 ft | 13 kts | 133° |
| 2026-05-07 22:24 | 47.43317 | 19.25473 | 462 ft | 12 kts | 132° |
| 2026-05-07 22:24 | 47.43287 | 19.25549 | 462 ft | 10 kts | 96° |
| 2026-05-07 22:25 | 47.43296 | 19.25634 | 462 ft | 5 kts | 73° |
| 2026-05-07 22:25 | 47.43298 | 19.25643 | 462 ft | 0 kts | 73° |